createdAt,value
2017-11-24T00:01:06.739Z,5.90
2017-11-24T00:03:33.311Z,6.50
2017-11-24T00:05:59.892Z,3.93
2017-11-24T00:08:26.487Z,3.83
2017-11-24T00:10:53.072Z,3.93
2017-11-24T00:13:19.667Z,3.73
2017-11-24T00:15:46.252Z,4.73
2017-11-24T00:18:12.853Z,5.10
2017-11-24T00:20:39.428Z,3.90
2017-11-24T00:23:06.004Z,4.83
2017-11-24T00:25:32.590Z,5.33
2017-11-24T00:27:59.219Z,6.70
2017-11-24T00:30:25.791Z,3.83
2017-11-24T00:32:52.377Z,5.60
2017-11-24T00:35:18.964Z,3.40
2017-11-24T00:37:45.544Z,6.80
2017-11-24T00:40:12.115Z,4.13
2017-11-24T00:42:38.720Z,3.53
2017-11-24T00:45:05.308Z,4.60
2017-11-24T00:47:31.895Z,3.77
2017-11-24T00:49:58.480Z,3.60
2017-11-24T00:52:25.062Z,5.03
2017-11-24T00:54:51.656Z,4.10
2017-11-24T00:57:18.238Z,4.23
2017-11-24T00:59:44.819Z,3.80
2017-11-24T01:02:11.403Z,4.47
2017-11-24T01:04:37.994Z,2.93
2017-11-24T01:07:04.580Z,5.00
2017-11-24T01:09:31.168Z,4.00
2017-11-24T01:11:57.740Z,3.73
2017-11-24T01:14:24.327Z,4.70
2017-11-24T01:16:50.943Z,3.43
2017-11-24T01:19:17.650Z,5.00
2017-11-24T01:21:44.216Z,4.47
2017-11-24T01:24:10.796Z,4.20
2017-11-24T01:26:37.385Z,3.40
2017-11-24T01:29:03.964Z,3.07
2017-11-24T01:31:30.547Z,5.43
2017-11-24T01:33:57.127Z,3.10
2017-11-24T01:36:23.755Z,3.77
2017-11-24T01:38:50.328Z,4.40
2017-11-24T01:41:16.899Z,4.80
2017-11-24T01:43:43.488Z,4.13
2017-11-24T01:46:10.068Z,3.60
2017-11-24T01:48:36.655Z,5.60
2017-11-24T01:51:03.239Z,3.73
2017-11-24T01:53:29.839Z,4.97
2017-11-24T01:55:56.445Z,3.40
2017-11-24T01:58:23.014Z,7.63
2017-11-24T02:00:49.603Z,3.10
2017-11-24T02:03:16.184Z,5.30
2017-11-24T02:05:42.771Z,4.40
2017-11-24T02:08:09.351Z,5.33
2017-11-24T02:10:35.951Z,3.33
2017-11-24T02:13:02.559Z,5.23
2017-11-24T02:15:29.118Z,7.10
2017-11-24T02:17:55.711Z,3.20
2017-11-24T02:20:22.291Z,3.33
2017-11-24T02:22:49.240Z,4.37
2017-11-24T02:25:15.813Z,5.60
2017-11-24T02:27:42.412Z,6.47
2017-11-24T02:30:08.995Z,3.27
2017-11-24T02:32:35.573Z,4.20
2017-11-24T02:35:02.160Z,5.03
2017-11-24T02:37:28.735Z,2.90
2017-11-24T02:39:55.323Z,3.13
2017-11-24T02:42:21.904Z,5.63
2017-11-24T02:44:48.525Z,3.03
2017-11-24T02:47:15.103Z,3.67
2017-11-24T02:49:41.690Z,5.40
2017-11-24T02:52:08.271Z,3.13
2017-11-24T02:54:34.851Z,3.50
2017-11-24T02:57:01.439Z,4.93
2017-11-24T02:59:28.025Z,8.83
2017-11-24T03:01:54.620Z,4.60
2017-11-24T03:04:21.199Z,6.20
2017-11-24T03:06:47.784Z,3.83
2017-11-24T03:09:14.379Z,4.17
2017-11-24T03:11:40.968Z,6.07
2017-11-24T03:14:07.555Z,3.93
2017-11-24T03:16:34.140Z,3.90
2017-11-24T03:19:00.743Z,4.73
2017-11-24T03:21:27.334Z,2.83
2017-11-24T03:23:53.929Z,4.63
2017-11-24T03:26:20.515Z,4.17
2017-11-24T03:31:19.309Z,3.23
2017-11-24T03:33:45.883Z,4.20
2017-11-24T03:36:12.479Z,2.60
2017-11-24T03:38:39.058Z,3.70
2017-11-24T03:41:05.644Z,4.80
2017-11-24T03:43:32.228Z,4.80
2017-11-24T03:45:58.806Z,3.23
2017-11-24T03:48:25.392Z,3.60
2017-11-24T03:50:51.975Z,3.03
2017-11-24T03:53:18.572Z,3.73
2017-11-24T03:55:45.152Z,3.97
2017-11-24T03:58:11.739Z,5.03
2017-11-24T04:00:38.327Z,4.83
2017-11-24T04:03:04.943Z,3.90
2017-11-24T04:05:31.531Z,2.93
2017-11-24T04:07:58.125Z,4.13
2017-11-24T04:10:24.716Z,3.57
2017-11-24T04:12:51.296Z,3.80
2017-11-24T04:15:17.879Z,4.83
2017-11-24T04:17:44.470Z,5.63
2017-11-24T04:20:11.056Z,3.40
2017-11-24T04:22:37.648Z,3.17
2017-11-24T04:25:04.228Z,4.40
2017-11-24T04:27:30.823Z,5.53
2017-11-24T04:29:57.409Z,3.30
2017-11-24T04:32:23.994Z,3.70
2017-11-24T04:34:50.580Z,3.60
2017-11-24T04:37:17.159Z,3.47
2017-11-24T04:39:43.739Z,3.50
2017-11-24T04:42:10.336Z,3.80
2017-11-24T04:44:36.920Z,4.00
2017-11-24T04:47:03.504Z,3.50
2017-11-24T04:49:30.080Z,8.50
2017-11-24T04:51:56.666Z,4.03
2017-11-24T04:54:23.249Z,3.50
2017-11-24T04:56:49.835Z,3.60
2017-11-24T04:59:16.413Z,3.67
2017-11-24T05:01:42.998Z,4.30
2017-11-24T05:04:09.584Z,3.70
2017-11-24T05:06:36.172Z,4.60
2017-11-24T05:09:02.751Z,3.43
2017-11-24T05:11:29.330Z,4.37
2017-11-24T05:13:55.918Z,4.00
2017-11-24T05:16:22.507Z,3.60
2017-11-24T05:18:49.095Z,4.00
2017-11-24T05:21:15.681Z,4.33
2017-11-24T05:23:42.266Z,4.00
2017-11-24T05:26:08.855Z,4.07
2017-11-24T05:28:35.434Z,3.40
2017-11-24T05:31:02.019Z,3.90
2017-11-24T05:33:28.599Z,3.80
2017-11-24T05:35:55.195Z,3.93
2017-11-24T05:38:21.773Z,3.97
2017-11-24T05:40:48.356Z,5.73
2017-11-24T05:43:14.944Z,4.20
2017-11-24T05:45:41.525Z,3.20
2017-11-24T05:48:08.115Z,3.43
2017-11-24T05:50:34.691Z,3.73
2017-11-24T05:53:01.273Z,7.30
2017-11-24T05:55:27.863Z,3.70
2017-11-24T05:57:54.439Z,5.20
2017-11-24T06:00:21.043Z,5.20
2017-11-24T06:02:47.629Z,4.20
2017-11-24T06:05:14.211Z,3.93
2017-11-24T06:07:40.799Z,4.10
2017-11-24T06:10:07.379Z,3.90
2017-11-24T06:12:33.983Z,4.30
2017-11-24T06:15:00.556Z,4.30
2017-11-24T06:17:27.140Z,4.17
2017-11-24T06:19:53.724Z,4.30
2017-11-24T06:22:20.342Z,4.83
2017-11-24T06:24:46.923Z,4.20
2017-11-24T06:27:13.497Z,4.50
2017-11-24T06:29:40.112Z,5.50
2017-11-24T06:32:06.670Z,4.33
2017-11-24T06:34:33.271Z,4.90
2017-11-24T06:36:59.843Z,4.30
2017-11-24T06:39:26.431Z,3.80
2017-11-24T06:41:53.018Z,5.37
2017-11-24T06:44:19.607Z,5.70
2017-11-24T06:46:46.219Z,5.60
2017-11-24T06:49:12.791Z,4.10
2017-11-24T06:51:39.379Z,3.87
2017-11-24T06:54:05.966Z,6.80
2017-11-24T06:56:32.548Z,4.80
2017-11-24T06:58:59.139Z,4.40
2017-11-24T07:01:25.730Z,5.00
2017-11-24T07:03:52.320Z,4.30
2017-11-24T07:06:19.571Z,4.40
2017-11-24T07:08:46.172Z,3.10
2017-11-24T07:11:12.765Z,3.67
2017-11-24T07:13:39.341Z,6.20
2017-11-24T07:16:05.937Z,3.40
2017-11-24T07:18:32.515Z,3.80
2017-11-24T07:20:59.096Z,6.17
2017-11-24T07:23:25.682Z,5.33
2017-11-24T07:25:52.264Z,4.23
2017-11-24T07:28:18.855Z,5.50
2017-11-24T07:33:09.148Z,5.10
2017-11-24T07:35:35.732Z,6.83
2017-11-24T07:38:02.311Z,3.57
2017-11-24T07:40:28.901Z,3.77
2017-11-24T07:42:55.475Z,3.40
2017-11-24T07:45:22.065Z,3.50
2017-11-24T07:47:48.643Z,3.50
2017-11-24T07:50:15.231Z,3.40
2017-11-24T07:52:41.813Z,3.40
2017-11-24T07:55:08.408Z,3.80
2017-11-24T07:57:34.988Z,4.23
2017-11-24T08:00:01.572Z,4.10
2017-11-24T08:02:28.154Z,3.70
2017-11-24T08:04:54.728Z,4.63
2017-11-24T08:07:21.324Z,4.00
2017-11-24T08:09:47.965Z,5.30
2017-11-24T08:12:14.550Z,5.47
2017-11-24T08:14:41.136Z,4.90
2017-11-24T08:17:07.815Z,3.70
2017-11-24T08:19:34.383Z,4.33
2017-11-24T08:22:00.968Z,3.83
2017-11-24T08:24:27.564Z,3.50
2017-11-24T08:26:54.149Z,3.90
2017-11-24T08:29:20.727Z,3.93
2017-11-24T08:31:47.324Z,9.03
2017-11-24T08:34:13.907Z,6.13
2017-11-24T08:36:40.507Z,4.33
2017-11-24T08:39:07.083Z,3.80
2017-11-24T08:41:33.676Z,4.43
2017-11-24T08:44:00.256Z,4.27
2017-11-24T08:46:32.691Z,5.13
2017-11-24T08:49:05.096Z,4.50
2017-11-24T08:51:31.671Z,5.23
2017-11-24T08:53:58.273Z,4.33
2017-11-24T08:56:24.859Z,5.13
2017-11-24T08:58:51.447Z,4.67
2017-11-24T09:01:18.032Z,4.37
2017-11-24T09:03:44.627Z,3.73
2017-11-24T09:06:11.206Z,4.13
2017-11-24T09:08:37.793Z,4.23
2017-11-24T09:11:04.367Z,4.83
2017-11-24T09:13:30.947Z,4.10
2017-11-24T09:15:57.566Z,4.77
2017-11-24T09:18:24.135Z,4.50
2017-11-24T09:20:50.731Z,4.07
2017-11-24T09:23:17.318Z,5.20
2017-11-24T09:25:43.898Z,4.67
2017-11-24T09:28:10.478Z,5.40
2017-11-24T09:30:37.084Z,4.57
2017-11-24T09:33:03.670Z,5.00
2017-11-24T09:35:30.263Z,4.03
2017-11-24T09:37:56.851Z,4.60
2017-11-24T09:40:23.436Z,4.57
2017-11-24T09:42:50.106Z,4.83
2017-11-24T09:45:16.667Z,6.70
2017-11-24T09:47:43.251Z,5.10
2017-11-24T09:50:09.836Z,4.73
2017-11-24T09:52:36.472Z,4.83
2017-11-24T09:55:03.051Z,4.70
2017-11-24T09:57:29.643Z,4.17
2017-11-24T09:59:56.221Z,4.60
2017-11-24T10:02:22.811Z,4.80
2017-11-24T10:04:49.386Z,4.67
2017-11-24T10:07:15.980Z,4.83
2017-11-24T10:09:42.559Z,4.53
2017-11-24T10:12:09.136Z,4.93
2017-11-24T10:14:35.724Z,5.50
2017-11-24T10:17:02.303Z,4.50
2017-11-24T10:19:28.891Z,5.10
2017-11-24T10:22:01.182Z,5.33
2017-11-24T10:24:27.795Z,10.37
2017-11-24T10:26:54.376Z,4.20
2017-11-24T10:29:21.002Z,4.30
2017-11-24T10:31:47.573Z,4.40
2017-11-24T10:34:14.152Z,4.60
2017-11-24T10:36:40.741Z,4.40
2017-11-24T10:39:07.320Z,4.57
2017-11-24T10:41:33.908Z,4.13
2017-11-24T10:44:00.491Z,4.03
2017-11-24T10:46:27.084Z,4.37
2017-11-24T10:48:53.665Z,3.73
2017-11-24T10:51:20.252Z,4.47
2017-11-24T10:53:46.843Z,4.67
2017-11-24T10:56:13.424Z,3.90
2017-11-24T10:58:40.012Z,4.00
2017-11-24T11:01:06.597Z,3.90
2017-11-24T11:03:33.208Z,4.03
2017-11-24T11:05:59.804Z,4.00
2017-11-24T11:08:26.392Z,4.23
2017-11-24T11:10:52.987Z,4.20
2017-11-24T11:13:19.565Z,3.40
2017-11-24T11:15:46.151Z,5.70
2017-11-24T11:18:12.750Z,4.17
2017-11-24T11:20:39.356Z,3.80
2017-11-24T11:23:05.930Z,4.67
2017-11-24T11:25:32.620Z,3.90
2017-11-24T11:27:59.193Z,4.30
2017-11-24T11:30:25.772Z,3.67
2017-11-24T11:32:52.377Z,4.07
2017-11-24T11:35:18.964Z,4.40
2017-11-24T11:37:45.552Z,4.33
2017-11-24T11:40:12.302Z,3.60
2017-11-24T11:42:38.875Z,4.57
2017-11-24T11:45:05.459Z,3.97
2017-11-24T11:47:32.046Z,3.90
2017-11-24T11:49:58.638Z,7.40
2017-11-24T11:52:25.212Z,4.87
2017-11-24T11:54:51.826Z,4.00
2017-11-24T11:57:18.394Z,4.00
2017-11-24T11:59:44.995Z,3.43
2017-11-24T12:02:11.577Z,4.40
2017-11-24T12:04:38.168Z,3.73
2017-11-24T12:07:04.755Z,3.80
2017-11-24T12:09:31.336Z,4.30
2017-11-24T12:11:57.985Z,4.13
2017-11-24T12:14:24.570Z,3.90
2017-11-24T12:16:51.160Z,3.97
2017-11-24T12:19:17.746Z,4.50
2017-11-24T12:21:44.335Z,4.40
2017-11-24T12:24:10.911Z,4.20
2017-11-24T12:26:37.501Z,6.40
2017-11-24T12:29:04.183Z,4.90
2017-11-24T12:31:30.768Z,4.50
2017-11-24T12:33:57.355Z,4.27
2017-11-24T12:36:23.954Z,4.80
2017-11-24T12:38:50.562Z,4.37
2017-11-24T12:41:17.135Z,4.13
2017-11-24T12:43:43.711Z,3.93
2017-11-24T12:46:10.307Z,4.33
2017-11-24T12:48:36.888Z,4.83
2017-11-24T12:51:03.485Z,4.10
2017-11-24T12:53:30.060Z,4.40
2017-11-24T12:55:56.706Z,4.63
2017-11-24T12:58:23.279Z,5.70
2017-11-24T13:00:49.869Z,4.20
2017-11-24T13:03:16.468Z,5.53
2017-11-24T13:05:43.047Z,5.90
2017-11-24T13:08:09.663Z,4.10
2017-11-24T13:10:36.237Z,6.00
2017-11-24T13:13:02.832Z,4.17
2017-11-24T13:15:29.395Z,5.40
2017-11-24T13:17:56.012Z,4.33
2017-11-24T13:20:22.633Z,4.57
2017-11-24T13:22:49.234Z,4.70
2017-11-24T13:25:15.839Z,6.33
2017-11-24T13:27:42.420Z,4.77
2017-11-24T13:30:09.000Z,4.97
2017-11-24T13:32:35.592Z,6.30
2017-11-24T13:35:02.312Z,4.90
2017-11-24T13:37:28.904Z,5.10
2017-11-24T13:39:55.509Z,4.77
2017-11-24T13:42:22.100Z,6.57
2017-11-24T13:44:48.687Z,5.10
2017-11-24T13:47:15.273Z,6.33
2017-11-24T13:49:41.865Z,4.73
2017-11-24T13:52:08.452Z,3.87
2017-11-24T13:54:35.039Z,6.73
2017-11-24T13:57:01.648Z,4.27
2017-11-24T13:59:28.224Z,6.20
2017-11-24T14:01:54.808Z,4.80
2017-11-24T14:04:21.408Z,6.33
2017-11-24T14:06:47.992Z,5.17
2017-11-24T14:09:14.567Z,6.00
2017-11-24T14:11:41.156Z,5.33
2017-11-24T14:14:07.758Z,5.00
2017-11-24T14:16:34.332Z,6.43
2017-11-24T14:19:00.915Z,4.93
2017-11-24T14:21:27.508Z,5.40
2017-11-24T14:23:54.087Z,5.70
2017-11-24T14:26:20.692Z,6.50
2017-11-24T14:28:47.272Z,6.07
2017-11-24T14:31:13.862Z,6.07
2017-11-24T14:33:40.449Z,4.90
2017-11-24T14:36:07.026Z,4.80
2017-11-24T14:38:33.632Z,5.47
2017-11-24T14:41:00.193Z,5.40
2017-11-24T14:43:26.827Z,6.87
2017-11-24T14:45:53.407Z,5.73
2017-11-24T14:48:25.921Z,5.80
2017-11-24T14:50:52.529Z,5.30
2017-11-24T14:53:19.111Z,5.97
2017-11-24T14:55:45.726Z,5.77
2017-11-24T14:58:12.299Z,7.00
2017-11-24T15:00:38.888Z,6.70
2017-11-24T15:03:06.492Z,7.70
2017-11-24T15:05:33.159Z,5.70
2017-11-24T15:07:59.785Z,6.47
2017-11-24T15:10:26.475Z,5.77
2017-11-24T15:12:53.151Z,7.63
2017-11-24T15:15:19.751Z,8.63
2017-11-24T15:17:46.490Z,14.73
2017-11-24T15:20:13.070Z,14.73
2017-11-24T15:22:39.663Z,11.13
2017-11-24T15:25:06.244Z,14.27
2017-11-24T15:27:32.843Z,13.53
2017-11-24T15:29:59.492Z,12.90
2017-11-24T15:32:26.121Z,15.60
2017-11-24T15:34:52.706Z,12.67
2017-11-24T15:37:19.291Z,11.67
2017-11-24T15:39:45.883Z,11.00
2017-11-24T15:42:12.482Z,10.60
2017-11-24T15:44:39.059Z,11.57
2017-11-24T15:47:05.655Z,10.90
2017-11-24T15:49:32.250Z,11.37
2017-11-24T15:51:58.836Z,11.77
2017-11-24T15:54:25.440Z,11.67
2017-11-24T15:56:52.031Z,11.40
2017-11-24T15:59:18.815Z,14.73
2017-11-24T16:01:45.400Z,13.93
2017-11-24T16:04:11.983Z,13.90
2017-11-24T16:06:38.572Z,14.60
2017-11-24T16:09:05.157Z,12.63
2017-11-24T16:11:31.772Z,14.03
2017-11-24T16:13:58.376Z,11.73
2017-11-24T16:16:24.964Z,12.10
2017-11-24T16:18:51.566Z,11.70
2017-11-24T16:21:18.160Z,10.93
2017-11-24T16:23:44.756Z,11.30
2017-11-24T16:26:11.340Z,12.17
2017-11-24T16:28:37.935Z,13.93
2017-11-24T16:31:04.575Z,11.93
2017-11-24T16:33:31.173Z,11.17
2017-11-24T16:35:57.760Z,12.63
2017-11-24T16:38:24.344Z,9.43
2017-11-24T16:40:50.935Z,12.13
2017-11-24T16:43:18.819Z,11.93
2017-11-24T16:45:45.416Z,12.00
2017-11-24T16:48:12.001Z,10.33
2017-11-24T16:50:38.610Z,11.77
2017-11-24T16:53:05.197Z,10.50
2017-11-24T16:55:31.801Z,11.13
2017-11-24T16:57:58.380Z,12.10
2017-11-24T17:00:24.967Z,10.63
2017-11-24T17:02:51.599Z,11.87
2017-11-24T17:05:18.168Z,10.83
2017-11-24T17:07:44.754Z,10.80
2017-11-24T17:10:11.341Z,11.00
2017-11-24T17:12:37.939Z,11.10
2017-11-24T17:15:04.607Z,11.77
2017-11-24T17:17:31.228Z,12.63
2017-11-24T17:19:57.815Z,11.63
2017-11-24T17:22:24.470Z,12.97
2017-11-24T17:24:51.166Z,9.57
2017-11-24T17:27:17.800Z,13.63
2017-11-24T17:29:44.388Z,12.50
2017-11-24T17:32:10.974Z,11.80
2017-11-24T17:34:37.575Z,11.90
2017-11-24T17:37:04.164Z,10.30
2017-11-24T17:39:30.755Z,11.33
2017-11-24T17:41:57.340Z,16.33
2017-11-24T17:44:23.924Z,10.67
2017-11-24T17:46:50.520Z,11.80
2017-11-24T17:49:17.099Z,10.20
2017-11-24T17:51:43.690Z,11.13
2017-11-24T17:54:10.276Z,17.73
2017-11-24T17:56:36.871Z,12.13
2017-11-24T17:59:03.463Z,11.97
2017-11-24T18:01:30.063Z,10.70
2017-11-24T18:03:56.650Z,14.37
2017-11-24T18:06:23.239Z,10.97
2017-11-24T18:08:49.844Z,12.80
2017-11-24T18:11:16.428Z,12.50
2017-11-24T18:13:43.012Z,12.27
2017-11-24T18:16:09.615Z,11.83
2017-11-24T18:18:36.227Z,14.83
2017-11-24T18:21:02.807Z,13.27
2017-11-24T18:23:29.403Z,11.63
2017-11-24T18:25:56.004Z,12.37
2017-11-24T18:28:22.589Z,12.53
2017-11-24T18:30:49.187Z,12.30
2017-11-24T18:33:15.771Z,13.93
2017-11-24T18:35:42.369Z,13.13
2017-11-24T18:38:09.035Z,13.50
2017-11-24T18:40:35.678Z,12.87
2017-11-24T18:43:02.315Z,13.60
2017-11-24T18:45:28.913Z,12.73
2017-11-24T18:47:55.507Z,13.30
2017-11-24T18:50:22.094Z,12.07
2017-11-24T18:52:48.691Z,12.63
2017-11-24T18:55:15.267Z,13.27
2017-11-24T18:57:41.862Z,13.77
2017-11-24T19:00:08.452Z,15.50
2017-11-24T19:02:35.048Z,11.87
2017-11-24T19:05:01.641Z,12.93
2017-11-24T19:07:28.263Z,14.07
2017-11-24T19:09:54.852Z,13.60
2017-11-24T19:12:22.174Z,12.03
2017-11-24T19:14:48.759Z,14.30
2017-11-24T19:17:15.351Z,12.53
2017-11-24T19:19:42.271Z,14.10
2017-11-24T19:22:08.875Z,14.00
2017-11-24T19:24:35.475Z,13.13
2017-11-24T19:27:02.068Z,12.70
2017-11-24T19:29:28.655Z,16.07
2017-11-24T19:31:55.252Z,16.40
2017-11-24T19:34:24.024Z,14.60
2017-11-24T19:36:50.648Z,12.10
2017-11-24T19:39:17.254Z,15.57
2017-11-24T19:41:43.832Z,12.63
2017-11-24T19:44:10.423Z,14.03
2017-11-24T19:46:37.075Z,15.20
2017-11-24T19:49:03.676Z,12.97
2017-11-24T19:51:30.262Z,14.43
2017-11-24T19:53:56.847Z,16.10
2017-11-24T19:56:23.440Z,13.00
2017-11-24T19:58:50.787Z,15.37
2017-11-24T20:01:17.404Z,17.07
2017-11-24T20:03:43.993Z,13.23
2017-11-24T20:06:10.632Z,15.23
2017-11-24T20:08:37.229Z,15.37
2017-11-24T20:11:03.854Z,16.53
2017-11-24T20:13:31.415Z,14.30
2017-11-24T20:15:58.003Z,14.57
2017-11-24T20:18:24.598Z,14.40
2017-11-24T20:20:51.215Z,14.80
2017-11-24T20:23:17.816Z,16.93
2017-11-24T20:25:44.412Z,16.00
2017-11-24T20:28:11.036Z,16.50
2017-11-24T20:30:37.627Z,15.30
2017-11-24T20:33:04.253Z,14.70
2017-11-24T20:35:30.862Z,15.83
2017-11-24T20:37:57.447Z,16.43
2017-11-24T20:40:24.044Z,16.93
2017-11-24T20:42:50.631Z,15.33
2017-11-24T20:45:17.310Z,18.37
2017-11-24T20:47:43.914Z,15.43
2017-11-24T20:50:10.520Z,15.90
2017-11-24T20:52:37.103Z,15.23
2017-11-24T20:55:03.706Z,19.33
2017-11-24T20:57:30.296Z,16.30
2017-11-24T20:59:56.880Z,18.43
2017-11-24T21:02:23.483Z,18.57
2017-11-24T21:04:50.067Z,18.20
2017-11-24T21:07:16.667Z,16.30
2017-11-24T21:09:43.265Z,17.50
2017-11-24T21:12:09.879Z,17.23
2017-11-24T21:14:36.471Z,18.10
2017-11-24T21:17:03.080Z,19.77
2017-11-24T21:19:29.676Z,18.17
2017-11-24T21:21:56.262Z,19.30
2017-11-24T21:24:22.859Z,18.10
2017-11-24T21:26:49.450Z,18.30
2017-11-24T21:29:16.078Z,17.27
2017-11-24T21:31:42.688Z,17.70
2017-11-24T21:34:09.294Z,16.53
2017-11-24T21:36:35.888Z,16.73
2017-11-24T21:39:02.479Z,17.60
2017-11-24T21:41:29.075Z,21.30
2017-11-24T21:43:55.667Z,19.57
2017-11-24T21:46:22.272Z,18.70
2017-11-24T21:48:48.876Z,19.03
2017-11-24T21:51:15.476Z,20.37
2017-11-24T21:53:42.063Z,18.90
2017-11-24T21:56:08.655Z,17.03
2017-11-24T21:58:35.251Z,17.40
2017-11-24T22:01:01.839Z,16.93
2017-11-24T22:03:28.444Z,19.90
2017-11-24T22:05:55.027Z,19.27
2017-11-24T22:08:21.627Z,18.23
2017-11-24T22:10:48.218Z,18.17
2017-11-24T22:13:14.897Z,18.37
2017-11-24T22:15:41.518Z,18.23
2017-11-24T22:18:08.103Z,18.30
2017-11-24T22:20:34.812Z,21.63
2017-11-24T22:23:01.457Z,18.23
2017-11-24T22:25:28.047Z,21.00
2017-11-24T22:27:54.651Z,19.07
2017-11-24T22:30:21.230Z,17.60
2017-11-24T22:32:47.859Z,18.73
2017-11-24T22:35:14.451Z,19.70
2017-11-24T22:37:41.043Z,20.23
2017-11-24T22:40:07.645Z,19.07
2017-11-24T22:42:34.226Z,21.23
2017-11-24T22:45:00.827Z,20.80
2017-11-24T22:47:27.429Z,20.00
2017-11-24T22:49:54.116Z,22.23
2017-11-24T22:52:20.707Z,20.10
2017-11-24T22:54:47.304Z,19.60
2017-11-24T22:57:13.898Z,19.27
2017-11-24T22:59:40.493Z,20.73
2017-11-24T23:02:07.107Z,18.30
2017-11-24T23:04:33.704Z,21.33
2017-11-24T23:07:00.311Z,20.00
2017-11-24T23:09:26.908Z,21.90
2017-11-24T23:11:53.503Z,25.40
2017-11-24T23:14:20.095Z,21.47
2017-11-24T23:16:46.679Z,20.70
2017-11-24T23:19:13.276Z,20.13
2017-11-24T23:21:39.880Z,19.77
2017-11-24T23:24:06.495Z,20.40
2017-11-24T23:26:33.085Z,22.83
2017-11-24T23:28:59.671Z,23.03
2017-11-24T23:31:26.268Z,21.20
2017-11-24T23:33:52.859Z,22.03
2017-11-24T23:36:19.455Z,21.57
2017-11-24T23:38:46.051Z,20.90
2017-11-24T23:41:12.663Z,21.50
2017-11-24T23:43:39.251Z,22.73
2017-11-24T23:46:05.855Z,19.67
2017-11-24T23:48:32.961Z,20.00
2017-11-24T23:50:59.543Z,20.07
2017-11-24T23:53:26.142Z,21.70
2017-11-24T23:55:52.731Z,22.53
2017-11-24T23:58:19.344Z,20.63
